Terminal Aerodrome Forecast
Issued by NWS

Home | Current Version | Previous Version | Text Only | Print | Product List | Glossary Off
Versions: 1 2 3 4 5 6 7 8 9 10 11 12 13 14 15 16 17 18 19

000
FTUS43 KMPX 300708 AAA
TAFRWF
TAF AMD
KRWF 300708Z 3007/3106 18005KT 5SM BR BKN004
      TEMPO 3008/3012 2SM BR
     FM301500 19010KT P6SM SKC
     FM301700 19014G22KT P6SM SKC
     FM310000 18010KT P6SM SKC=

USA.gov is the U.S. government's official web portal to all federal, state and local government web resources and services.